sensor_id;sensor_type;location;lat;lon;timestamp;P1;durP1;ratioP1;P2;durP2;ratioP2
49458;SDS011;35354;51.296;16.924;2023-08-01T00:00:59;6.78;;;4.47;;
49458;SDS011;35354;51.296;16.924;2023-08-01T00:03:24;5.72;;;3.88;;
49458;SDS011;35354;51.296;16.924;2023-08-01T00:05:50;6.05;;;3.97;;
49458;SDS011;35354;51.296;16.924;2023-08-01T00:08:15;5.85;;;3.88;;
49458;SDS011;35354;51.296;16.924;2023-08-01T00:10:40;5.05;;;4.30;;
49458;SDS011;35354;51.296;16.924;2023-08-01T00:13:06;7.18;;;3.70;;
49458;SDS011;35354;51.296;16.924;2023-08-01T00:15:32;4.63;;;3.40;;
49458;SDS011;35354;51.296;16.924;2023-08-01T00:17:57;4.22;;;3.63;;
49458;SDS011;35354;51.296;16.924;2023-08-01T00:20:23;8.07;;;4.25;;
49458;SDS011;35354;51.296;16.924;2023-08-01T00:22:48;5.93;;;3.72;;
49458;SDS011;35354;51.296;16.924;2023-08-01T00:25:13;4.90;;;3.65;;
49458;SDS011;35354;51.296;16.924;2023-08-01T00:27:39;4.78;;;3.83;;
49458;SDS011;35354;51.296;16.924;2023-08-01T00:30:04;4.28;;;3.40;;
49458;SDS011;35354;51.296;16.924;2023-08-01T00:32:30;7.18;;;3.97;;
49458;SDS011;35354;51.296;16.924;2023-08-01T00:34:56;5.72;;;3.83;;
49458;SDS011;35354;51.296;16.924;2023-08-01T00:37:21;5.20;;;3.70;;
49458;SDS011;35354;51.296;16.924;2023-08-01T00:39:46;4.47;;;4.07;;
49458;SDS011;35354;51.296;16.924;2023-08-01T00:42:12;5.20;;;4.10;;
49458;SDS011;35354;51.296;16.924;2023-08-01T00:44:38;4.60;;;3.40;;
49458;SDS011;35354;51.296;16.924;2023-08-01T00:47:04;4.65;;;3.33;;
49458;SDS011;35354;51.296;16.924;2023-08-01T00:49:29;6.50;;;3.55;;
49458;SDS011;35354;51.296;16.924;2023-08-01T00:51:55;5.50;;;3.70;;
49458;SDS011;35354;51.296;16.924;2023-08-01T00:54:20;6.07;;;3.90;;
49458;SDS011;35354;51.296;16.924;2023-08-01T00:56:46;5.80;;;3.80;;
49458;SDS011;35354;51.296;16.924;2023-08-01T00:59:12;3.92;;;3.53;;
49458;SDS011;35354;51.296;16.924;2023-08-01T01:01:38;5.32;;;3.28;;
49458;SDS011;35354;51.296;16.924;2023-08-01T01:04:03;4.55;;;3.40;;
49458;SDS011;35354;51.296;16.924;2023-08-01T01:06:37;6.57;;;3.78;;
49458;SDS011;35354;51.296;16.924;2023-08-01T01:09:14;5.95;;;3.67;;
49458;SDS011;35354;51.296;16.924;2023-08-01T01:11:41;5.68;;;3.60;;
49458;SDS011;35354;51.296;16.924;2023-08-01T01:14:06;4.38;;;3.97;;
49458;SDS011;35354;51.296;16.924;2023-08-01T01:16:31;4.88;;;3.67;;
49458;SDS011;35354;51.296;16.924;2023-08-01T01:18:56;3.72;;;3.20;;
49458;SDS011;35354;51.296;16.924;2023-08-01T01:21:22;6.25;;;3.70;;
49458;SDS011;35354;51.296;16.924;2023-08-01T01:23:50;5.53;;;3.58;;
49458;SDS011;35354;51.296;16.924;2023-08-01T01:26:17;6.45;;;3.58;;
49458;SDS011;35354;51.296;16.924;2023-08-01T01:28:47;7.60;;;3.75;;
49458;SDS011;35354;51.296;16.924;2023-08-01T01:31:14;6.53;;;3.63;;
49458;SDS011;35354;51.296;16.924;2023-08-01T01:33:41;8.52;;;3.78;;
49458;SDS011;35354;51.296;16.924;2023-08-01T01:36:06;5.75;;;3.65;;
49458;SDS011;35354;51.296;16.924;2023-08-01T01:38:32;6.55;;;3.83;;
49458;SDS011;35354;51.296;16.924;2023-08-01T01:40:57;5.68;;;3.53;;
49458;SDS011;35354;51.296;16.924;2023-08-01T01:43:22;5.50;;;3.88;;
49458;SDS011;35354;51.296;16.924;2023-08-01T01:45:47;5.88;;;3.55;;
49458;SDS011;35354;51.296;16.924;2023-08-01T01:48:13;5.03;;;3.63;;
49458;SDS011;35354;51.296;16.924;2023-08-01T01:50:38;4.68;;;3.90;;
49458;SDS011;35354;51.296;16.924;2023-08-01T01:53:03;6.25;;;4.15;;
49458;SDS011;35354;51.296;16.924;2023-08-01T01:55:29;4.43;;;3.55;;
49458;SDS011;35354;51.296;16.924;2023-08-01T01:57:54;4.43;;;3.33;;
49458;SDS011;35354;51.296;16.924;2023-08-01T02:00:19;4.57;;;3.42;;
49458;SDS011;35354;51.296;16.924;2023-08-01T02:02:45;5.95;;;4.00;;
49458;SDS011;35354;51.296;16.924;2023-08-01T02:05:10;3.90;;;3.22;;
49458;SDS011;35354;51.296;16.924;2023-08-01T02:07:35;4.35;;;3.45;;
49458;SDS011;35354;51.296;16.924;2023-08-01T02:10:01;4.90;;;3.63;;
49458;SDS011;35354;51.296;16.924;2023-08-01T02:12:27;4.65;;;3.53;;
49458;SDS011;35354;51.296;16.924;2023-08-01T02:14:56;5.68;;;3.47;;
49458;SDS011;35354;51.296;16.924;2023-08-01T02:17:22;5.07;;;3.63;;
49458;SDS011;35354;51.296;16.924;2023-08-01T02:19:47;7.15;;;4.20;;
49458;SDS011;35354;51.296;16.924;2023-08-01T02:22:13;3.67;;;3.30;;
49458;SDS011;35354;51.296;16.924;2023-08-01T02:24:38;4.05;;;3.65;;
49458;SDS011;35354;51.296;16.924;2023-08-01T02:27:03;4.03;;;3.60;;
49458;SDS011;35354;51.296;16.924;2023-08-01T02:29:29;3.65;;;3.08;;
49458;SDS011;35354;51.296;16.924;2023-08-01T02:31:54;4.43;;;3.28;;
49458;SDS011;35354;51.296;16.924;2023-08-01T02:34:21;6.05;;;3.78;;
49458;SDS011;35354;51.296;16.924;2023-08-01T02:36:46;5.07;;;3.70;;
49458;SDS011;35354;51.296;16.924;2023-08-01T02:39:11;6.07;;;3.35;;
49458;SDS011;35354;51.296;16.924;2023-08-01T02:41:37;5.05;;;3.30;;
49458;SDS011;35354;51.296;16.924;2023-08-01T02:44:02;7.60;;;4.00;;
49458;SDS011;35354;51.296;16.924;2023-08-01T02:46:28;4.55;;;3.67;;
49458;SDS011;35354;51.296;16.924;2023-08-01T02:48:54;4.68;;;3.42;;
49458;SDS011;35354;51.296;16.924;2023-08-01T02:51:20;4.35;;;3.53;;
49458;SDS011;35354;51.296;16.924;2023-08-01T02:53:45;5.78;;;3.58;;
49458;SDS011;35354;51.296;16.924;2023-08-01T02:56:10;6.75;;;3.60;;
49458;SDS011;35354;51.296;16.924;2023-08-01T02:58:36;5.35;;;3.67;;
49458;SDS011;35354;51.296;16.924;2023-08-01T03:01:01;6.05;;;3.70;;
49458;SDS011;35354;51.296;16.924;2023-08-01T03:03:32;4.50;;;3.67;;
49458;SDS011;35354;51.296;16.924;2023-08-01T03:05:57;5.57;;;3.90;;
49458;SDS011;35354;51.296;16.924;2023-08-01T03:08:22;5.88;;;3.92;;
49458;SDS011;35354;51.296;16.924;2023-08-01T03:10:48;3.58;;;3.28;;
49458;SDS011;35354;51.296;16.924;2023-08-01T03:13:14;4.03;;;3.63;;
49458;SDS011;35354;51.296;16.924;2023-08-01T03:15:39;4.95;;;3.53;;
49458;SDS011;35354;51.296;16.924;2023-08-01T03:18:04;4.50;;;3.70;;
49458;SDS011;35354;51.296;16.924;2023-08-01T03:20:30;4.30;;;3.90;;
49458;SDS011;35354;51.296;16.924;2023-08-01T03:22:55;4.70;;;3.75;;
49458;SDS011;35354;51.296;16.924;2023-08-01T03:25:20;5.78;;;4.30;;
49458;SDS011;35354;51.296;16.924;2023-08-01T03:27:46;6.75;;;3.60;;
49458;SDS011;35354;51.296;16.924;2023-08-01T03:30:11;4.63;;;3.63;;
49458;SDS011;35354;51.296;16.924;2023-08-01T03:32:37;5.05;;;3.97;;
49458;SDS011;35354;51.296;16.924;2023-08-01T03:35:05;5.15;;;3.88;;
49458;SDS011;35354;51.296;16.924;2023-08-01T03:37:31;6.10;;;3.75;;
49458;SDS011;35354;51.296;16.924;2023-08-01T03:39:56;7.35;;;4.63;;
49458;SDS011;35354;51.296;16.924;2023-08-01T03:42:21;5.57;;;4.13;;
49458;SDS011;35354;51.296;16.924;2023-08-01T03:44:47;5.85;;;4.25;;
49458;SDS011;35354;51.296;16.924;2023-08-01T03:47:13;8.27;;;6.95;;
49458;SDS011;35354;51.296;16.924;2023-08-01T03:49:38;12.48;;;11.27;;
49458;SDS011;35354;51.296;16.924;2023-08-01T03:52:04;18.90;;;17.00;;
49458;SDS011;35354;51.296;16.924;2023-08-01T03:54:30;21.77;;;19.67;;
49458;SDS011;35354;51.296;16.924;2023-08-01T03:56:56;19.15;;;17.35;;
49458;SDS011;35354;51.296;16.924;2023-08-01T03:59:21;21.58;;;19.15;;
49458;SDS011;35354;51.296;16.924;2023-08-01T04:01:47;33.30;;;29.80;;
49458;SDS011;35354;51.296;16.924;2023-08-01T04:04:12;46.22;;;41.33;;
49458;SDS011;35354;51.296;16.924;2023-08-01T04:06:38;34.45;;;30.85;;
49458;SDS011;35354;51.296;16.924;2023-08-01T04:09:03;20.27;;;18.20;;
49458;SDS011;35354;51.296;16.924;2023-08-01T04:11:28;16.27;;;14.70;;
49458;SDS011;35354;51.296;16.924;2023-08-01T04:13:55;13.77;;;12.25;;
49458;SDS011;35354;51.296;16.924;2023-08-01T04:16:20;10.73;;;9.02;;
49458;SDS011;35354;51.296;16.924;2023-08-01T04:18:46;8.25;;;7.15;;
49458;SDS011;35354;51.296;16.924;2023-08-01T04:21:13;5.57;;;4.78;;
49458;SDS011;35354;51.296;16.924;2023-08-01T04:23:39;4.65;;;4.10;;
49458;SDS011;35354;51.296;16.924;2023-08-01T04:26:05;5.57;;;3.88;;
49458;SDS011;35354;51.296;16.924;2023-08-01T04:28:33;5.18;;;4.20;;
49458;SDS011;35354;51.296;16.924;2023-08-01T04:30:59;5.18;;;3.92;;
49458;SDS011;35354;51.296;16.924;2023-08-01T04:33:25;6.28;;;4.18;;
49458;SDS011;35354;51.296;16.924;2023-08-01T04:35:50;6.78;;;3.97;;
49458;SDS011;35354;51.296;16.924;2023-08-01T04:38:16;5.68;;;3.78;;
49458;SDS011;35354;51.296;16.924;2023-08-01T04:40:41;4.47;;;3.78;;
49458;SDS011;35354;51.296;16.924;2023-08-01T04:43:06;5.13;;;4.30;;
49458;SDS011;35354;51.296;16.924;2023-08-01T04:45:32;4.82;;;4.30;;
49458;SDS011;35354;51.296;16.924;2023-08-01T04:47:57;4.45;;;3.78;;
49458;SDS011;35354;51.296;16.924;2023-08-01T04:50:22;5.03;;;4.07;;
49458;SDS011;35354;51.296;16.924;2023-08-01T04:52:48;6.03;;;4.97;;
49458;SDS011;35354;51.296;16.924;2023-08-01T04:55:13;6.82;;;4.43;;
49458;SDS011;35354;51.296;16.924;2023-08-01T04:57:39;6.60;;;4.35;;
49458;SDS011;35354;51.296;16.924;2023-08-01T05:00:05;6.22;;;4.13;;
49458;SDS011;35354;51.296;16.924;2023-08-01T05:02:30;6.07;;;4.40;;
49458;SDS011;35354;51.296;16.924;2023-08-01T05:04:56;7.13;;;4.18;;
49458;SDS011;35354;51.296;16.924;2023-08-01T05:07:21;5.57;;;4.43;;
49458;SDS011;35354;51.296;16.924;2023-08-01T05:09:46;5.22;;;3.97;;
49458;SDS011;35354;51.296;16.924;2023-08-01T05:12:12;7.00;;;4.10;;
49458;SDS011;35354;51.296;16.924;2023-08-01T05:14:37;8.00;;;4.22;;
49458;SDS011;35354;51.296;16.924;2023-08-01T05:17:03;4.95;;;3.88;;
49458;SDS011;35354;51.296;16.924;2023-08-01T05:19:28;6.90;;;4.90;;
49458;SDS011;35354;51.296;16.924;2023-08-01T05:21:54;5.15;;;4.25;;
49458;SDS011;35354;51.296;16.924;2023-08-01T05:24:20;5.35;;;4.68;;
49458;SDS011;35354;51.296;16.924;2023-08-01T05:26:45;8.32;;;5.00;;
49458;SDS011;35354;51.296;16.924;2023-08-01T05:29:10;6.03;;;4.55;;
49458;SDS011;35354;51.296;16.924;2023-08-01T05:31:36;7.03;;;5.38;;
49458;SDS011;35354;51.296;16.924;2023-08-01T05:34:01;8.15;;;5.00;;
49458;SDS011;35354;51.296;16.924;2023-08-01T05:36:26;9.05;;;4.85;;
49458;SDS011;35354;51.296;16.924;2023-08-01T05:38:52;8.15;;;5.60;;
49458;SDS011;35354;51.296;16.924;2023-08-01T05:41:17;7.35;;;5.28;;
49458;SDS011;35354;51.296;16.924;2023-08-01T05:43:42;8.10;;;5.25;;
49458;SDS011;35354;51.296;16.924;2023-08-01T05:46:08;5.22;;;4.70;;
49458;SDS011;35354;51.296;16.924;2023-08-01T05:48:33;6.03;;;5.30;;
49458;SDS011;35354;51.296;16.924;2023-08-01T05:50:58;5.97;;;4.63;;
49458;SDS011;35354;51.296;16.924;2023-08-01T05:53:24;7.55;;;4.47;;
49458;SDS011;35354;51.296;16.924;2023-08-01T05:55:49;5.45;;;4.63;;
49458;SDS011;35354;51.296;16.924;2023-08-01T05:58:15;6.43;;;4.65;;
49458;SDS011;35354;51.296;16.924;2023-08-01T06:00:40;8.65;;;5.03;;
49458;SDS011;35354;51.296;16.924;2023-08-01T06:03:06;7.13;;;5.30;;
49458;SDS011;35354;51.296;16.924;2023-08-01T06:05:31;8.52;;;5.18;;
49458;SDS011;35354;51.296;16.924;2023-08-01T06:07:57;7.05;;;5.15;;
49458;SDS011;35354;51.296;16.924;2023-08-01T06:10:22;6.25;;;4.57;;
49458;SDS011;35354;51.296;16.924;2023-08-01T06:12:47;6.07;;;4.43;;
49458;SDS011;35354;51.296;16.924;2023-08-01T06:15:13;7.28;;;5.00;;
49458;SDS011;35354;51.296;16.924;2023-08-01T06:17:38;6.32;;;4.55;;
49458;SDS011;35354;51.296;16.924;2023-08-01T06:20:04;8.77;;;5.25;;
49458;SDS011;35354;51.296;16.924;2023-08-01T06:22:30;6.03;;;4.07;;
49458;SDS011;35354;51.296;16.924;2023-08-01T06:24:55;7.25;;;4.68;;
49458;SDS011;35354;51.296;16.924;2023-08-01T06:27:21;4.95;;;4.45;;
49458;SDS011;35354;51.296;16.924;2023-08-01T06:29:46;7.78;;;4.93;;
49458;SDS011;35354;51.296;16.924;2023-08-01T06:32:12;5.43;;;4.50;;
49458;SDS011;35354;51.296;16.924;2023-08-01T06:34:37;6.70;;;4.90;;
49458;SDS011;35354;51.296;16.924;2023-08-01T06:37:02;8.00;;;4.68;;
49458;SDS011;35354;51.296;16.924;2023-08-01T06:39:29;5.60;;;4.82;;
49458;SDS011;35354;51.296;16.924;2023-08-01T06:41:54;9.40;;;5.28;;
49458;SDS011;35354;51.296;16.924;2023-08-01T06:44:21;8.95;;;5.32;;
49458;SDS011;35354;51.296;16.924;2023-08-01T06:46:47;7.20;;;5.20;;
49458;SDS011;35354;51.296;16.924;2023-08-01T06:49:13;6.82;;;5.15;;
49458;SDS011;35354;51.296;16.924;2023-08-01T06:51:38;7.30;;;5.18;;
49458;SDS011;35354;51.296;16.924;2023-08-01T06:54:03;8.73;;;5.85;;
49458;SDS011;35354;51.296;16.924;2023-08-01T06:56:28;6.40;;;5.25;;
49458;SDS011;35354;51.296;16.924;2023-08-01T06:58:54;7.05;;;5.68;;
49458;SDS011;35354;51.296;16.924;2023-08-01T07:01:19;6.82;;;5.65;;
49458;SDS011;35354;51.296;16.924;2023-08-01T07:03:44;6.65;;;5.55;;
49458;SDS011;35354;51.296;16.924;2023-08-01T07:06:10;6.78;;;5.00;;
49458;SDS011;35354;51.296;16.924;2023-08-01T07:08:36;5.63;;;4.65;;
49458;SDS011;35354;51.296;16.924;2023-08-01T07:11:01;6.68;;;5.28;;
49458;SDS011;35354;51.296;16.924;2023-08-01T07:13:27;6.88;;;5.25;;
49458;SDS011;35354;51.296;16.924;2023-08-01T07:15:53;7.35;;;5.63;;
49458;SDS011;35354;51.296;16.924;2023-08-01T07:18:18;7.38;;;5.68;;
49458;SDS011;35354;51.296;16.924;2023-08-01T07:20:44;7.63;;;5.32;;
49458;SDS011;35354;51.296;16.924;2023-08-01T07:23:09;6.72;;;4.80;;
49458;SDS011;35354;51.296;16.924;2023-08-01T07:25:35;5.57;;;4.70;;
49458;SDS011;35354;51.296;16.924;2023-08-01T07:28:00;6.75;;;5.10;;
49458;SDS011;35354;51.296;16.924;2023-08-01T07:30:26;7.72;;;5.63;;
49458;SDS011;35354;51.296;16.924;2023-08-01T07:32:52;7.63;;;5.68;;
49458;SDS011;35354;51.296;16.924;2023-08-01T07:35:17;7.13;;;5.97;;
49458;SDS011;35354;51.296;16.924;2023-08-01T07:37:42;7.20;;;4.95;;
49458;SDS011;35354;51.296;16.924;2023-08-01T07:40:08;7.85;;;5.22;;
49458;SDS011;35354;51.296;16.924;2023-08-01T07:42:34;6.07;;;5.25;;
49458;SDS011;35354;51.296;16.924;2023-08-01T07:44:59;8.13;;;5.13;;
49458;SDS011;35354;51.296;16.924;2023-08-01T07:47:25;8.73;;;5.53;;
49458;SDS011;35354;51.296;16.924;2023-08-01T07:49:50;8.68;;;5.32;;
49458;SDS011;35354;51.296;16.924;2023-08-01T07:52:17;6.55;;;5.53;;
49458;SDS011;35354;51.296;16.924;2023-08-01T07:54:42;10.15;;;5.82;;
49458;SDS011;35354;51.296;16.924;2023-08-01T07:57:07;6.20;;;5.22;;
49458;SDS011;35354;51.296;16.924;2023-08-01T07:59:32;7.53;;;5.88;;
49458;SDS011;35354;51.296;16.924;2023-08-01T08:01:58;7.63;;;5.82;;
49458;SDS011;35354;51.296;16.924;2023-08-01T08:04:23;7.63;;;5.53;;
49458;SDS011;35354;51.296;16.924;2023-08-01T08:06:48;5.55;;;4.88;;
49458;SDS011;35354;51.296;16.924;2023-08-01T08:09:14;8.02;;;5.68;;
49458;SDS011;35354;51.296;16.924;2023-08-01T08:11:39;6.95;;;5.43;;
49458;SDS011;35354;51.296;16.924;2023-08-01T08:14:05;6.72;;;5.32;;
49458;SDS011;35354;51.296;16.924;2023-08-01T08:16:30;10.77;;;5.30;;
49458;SDS011;35354;51.296;16.924;2023-08-01T08:18:55;10.90;;;6.13;;
49458;SDS011;35354;51.296;16.924;2023-08-01T08:21:21;8.45;;;5.88;;
49458;SDS011;35354;51.296;16.924;2023-08-01T08:23:46;6.70;;;4.80;;
49458;SDS011;35354;51.296;16.924;2023-08-01T08:26:11;5.47;;;4.85;;
49458;SDS011;35354;51.296;16.924;2023-08-01T08:28:37;5.95;;;5.00;;
49458;SDS011;35354;51.296;16.924;2023-08-01T08:31:02;6.35;;;5.13;;
49458;SDS011;35354;51.296;16.924;2023-08-01T08:33:28;8.00;;;6.03;;
49458;SDS011;35354;51.296;16.924;2023-08-01T08:35:54;6.25;;;5.07;;
49458;SDS011;35354;51.296;16.924;2023-08-01T08:38:19;7.53;;;5.20;;
49458;SDS011;35354;51.296;16.924;2023-08-01T08:40:52;9.43;;;5.40;;
49458;SDS011;35354;51.296;16.924;2023-08-01T08:43:26;7.65;;;5.68;;
49458;SDS011;35354;51.296;16.924;2023-08-01T08:45:53;7.20;;;5.13;;
49458;SDS011;35354;51.296;16.924;2023-08-01T08:48:22;5.77;;;4.80;;
49458;SDS011;35354;51.296;16.924;2023-08-01T08:50:49;7.13;;;5.05;;
49458;SDS011;35354;51.296;16.924;2023-08-01T08:53:15;7.32;;;4.93;;
49458;SDS011;35354;51.296;16.924;2023-08-01T08:55:41;7.13;;;4.90;;
49458;SDS011;35354;51.296;16.924;2023-08-01T08:58:07;5.70;;;4.45;;
49458;SDS011;35354;51.296;16.924;2023-08-01T09:00:34;7.55;;;4.65;;
49458;SDS011;35354;51.296;16.924;2023-08-01T09:03:06;7.13;;;4.93;;
49458;SDS011;35354;51.296;16.924;2023-08-01T09:05:44;5.50;;;4.32;;
49458;SDS011;35354;51.296;16.924;2023-08-01T09:11:38;5.50;;;4.53;;
49458;SDS011;35354;51.296;16.924;2023-08-01T09:14:04;5.07;;;4.57;;
49458;SDS011;35354;51.296;16.924;2023-08-01T09:16:30;5.30;;;4.80;;
49458;SDS011;35354;51.296;16.924;2023-08-01T09:18:55;4.68;;;4.13;;
49458;SDS011;35354;51.296;16.924;2023-08-01T09:21:21;6.32;;;4.95;;
49458;SDS011;35354;51.296;16.924;2023-08-01T09:23:47;5.63;;;5.03;;
49458;SDS011;35354;51.296;16.924;2023-08-01T09:26:13;5.68;;;4.60;;
49458;SDS011;35354;51.296;16.924;2023-08-01T09:28:40;9.40;;;5.18;;
49458;SDS011;35354;51.296;16.924;2023-08-01T09:31:05;6.57;;;4.93;;
49458;SDS011;35354;51.296;16.924;2023-08-01T09:33:42;6.70;;;5.25;;
49458;SDS011;35354;51.296;16.924;2023-08-01T09:36:08;6.43;;;4.70;;
49458;SDS011;35354;51.296;16.924;2023-08-01T09:38:34;5.80;;;4.22;;
49458;SDS011;35354;51.296;16.924;2023-08-01T09:41:01;6.45;;;4.30;;
49458;SDS011;35354;51.296;16.924;2023-08-01T09:43:34;4.90;;;4.25;;
49458;SDS011;35354;51.296;16.924;2023-08-01T09:46:05;5.25;;;4.20;;
49458;SDS011;35354;51.296;16.924;2023-08-01T09:48:32;5.35;;;4.13;;
49458;SDS011;35354;51.296;16.924;2023-08-01T09:51:07;5.15;;;4.63;;
49458;SDS011;35354;51.296;16.924;2023-08-01T09:53:46;5.78;;;4.40;;
49458;SDS011;35354;51.296;16.924;2023-08-01T09:56:18;6.45;;;4.82;;
49458;SDS011;35354;51.296;16.924;2023-08-01T09:58:48;5.57;;;4.47;;
49458;SDS011;35354;51.296;16.924;2023-08-01T10:01:16;5.55;;;4.28;;
49458;SDS011;35354;51.296;16.924;2023-08-01T10:03:46;5.28;;;4.47;;
49458;SDS011;35354;51.296;16.924;2023-08-01T10:06:23;6.63;;;4.40;;
49458;SDS011;35354;51.296;16.924;2023-08-01T10:08:50;4.97;;;4.25;;
49458;SDS011;35354;51.296;16.924;2023-08-01T10:11:17;6.10;;;4.20;;
49458;SDS011;35354;51.296;16.924;2023-08-01T10:13:45;4.68;;;4.15;;
49458;SDS011;35354;51.296;16.924;2023-08-01T10:16:12;7.93;;;5.60;;
49458;SDS011;35354;51.296;16.924;2023-08-01T10:18:39;6.75;;;4.70;;
49458;SDS011;35354;51.296;16.924;2023-08-01T10:21:22;4.68;;;4.28;;
49458;SDS011;35354;51.296;16.924;2023-08-01T10:23:48;5.43;;;4.40;;
49458;SDS011;35354;51.296;16.924;2023-08-01T10:26:14;6.10;;;4.60;;
49458;SDS011;35354;51.296;16.924;2023-08-01T10:28:41;5.20;;;4.65;;
49458;SDS011;35354;51.296;16.924;2023-08-01T10:31:15;4.45;;;4.05;;
49458;SDS011;35354;51.296;16.924;2023-08-01T10:33:46;5.00;;;4.50;;
49458;SDS011;35354;51.296;16.924;2023-08-01T10:36:13;4.97;;;4.33;;
49458;SDS011;35354;51.296;16.924;2023-08-01T10:38:44;5.05;;;3.97;;
49458;SDS011;35354;51.296;16.924;2023-08-01T10:41:19;6.50;;;3.85;;
49458;SDS011;35354;51.296;16.924;2023-08-01T10:43:51;5.35;;;4.47;;
49458;SDS011;35354;51.296;16.924;2023-08-01T10:46:16;6.35;;;4.15;;
49458;SDS011;35354;51.296;16.924;2023-08-01T10:48:49;3.85;;;3.47;;
49458;SDS011;35354;51.296;16.924;2023-08-01T10:51:15;4.38;;;3.97;;
49458;SDS011;35354;51.296;16.924;2023-08-01T10:53:40;5.10;;;3.53;;
49458;SDS011;35354;51.296;16.924;2023-08-01T10:56:05;5.57;;;3.90;;
49458;SDS011;35354;51.296;16.924;2023-08-01T10:58:32;4.03;;;3.47;;
49458;SDS011;35354;51.296;16.924;2023-08-01T11:00:58;4.03;;;3.63;;
49458;SDS011;35354;51.296;16.924;2023-08-01T11:03:33;4.45;;;3.40;;
49458;SDS011;35354;51.296;16.924;2023-08-01T11:06:02;4.13;;;3.38;;
49458;SDS011;35354;51.296;16.924;2023-08-01T11:08:37;5.75;;;3.95;;
49458;SDS011;35354;51.296;16.924;2023-08-01T11:11:10;6.88;;;3.85;;
49458;SDS011;35354;51.296;16.924;2023-08-01T11:13:37;4.00;;;3.63;;
49458;SDS011;35354;51.296;16.924;2023-08-01T11:16:03;4.95;;;3.55;;
49458;SDS011;35354;51.296;16.924;2023-08-01T11:18:40;4.10;;;3.40;;
49458;SDS011;35354;51.296;16.924;2023-08-01T11:21:09;5.38;;;3.63;;
49458;SDS011;35354;51.296;16.924;2023-08-01T11:23:34;5.00;;;3.40;;
49458;SDS011;35354;51.296;16.924;2023-08-01T11:26:01;4.32;;;3.90;;
49458;SDS011;35354;51.296;16.924;2023-08-01T11:30:58;4.03;;;3.63;;
49458;SDS011;35354;51.296;16.924;2023-08-01T11:33:23;4.75;;;3.83;;
49458;SDS011;35354;51.296;16.924;2023-08-01T11:35:52;4.20;;;3.55;;
49458;SDS011;35354;51.296;16.924;2023-08-01T11:38:19;4.28;;;3.63;;
49458;SDS011;35354;51.296;16.924;2023-08-01T11:40:46;4.97;;;3.70;;
49458;SDS011;35354;51.296;16.924;2023-08-01T11:43:14;4.38;;;3.60;;
49458;SDS011;35354;51.296;16.924;2023-08-01T11:45:53;4.68;;;3.83;;
49458;SDS011;35354;51.296;16.924;2023-08-01T11:48:23;3.78;;;3.38;;
49458;SDS011;35354;51.296;16.924;2023-08-01T11:50:49;3.55;;;3.25;;
49458;SDS011;35354;51.296;16.924;2023-08-01T11:53:20;3.70;;;3.38;;
49458;SDS011;35354;51.296;16.924;2023-08-01T11:55:47;3.50;;;3.20;;
49458;SDS011;35354;51.296;16.924;2023-08-01T11:58:14;5.78;;;3.08;;
49458;SDS011;35354;51.296;16.924;2023-08-01T12:00:39;4.72;;;3.20;;
49458;SDS011;35354;51.296;16.924;2023-08-01T12:03:05;3.45;;;3.15;;
49458;SDS011;35354;51.296;16.924;2023-08-01T12:05:37;4.03;;;3.28;;
49458;SDS011;35354;51.296;16.924;2023-08-01T12:08:12;3.17;;;2.88;;
49458;SDS011;35354;51.296;16.924;2023-08-01T12:10:43;3.30;;;3.00;;
49458;SDS011;35354;51.296;16.924;2023-08-01T12:13:22;3.85;;;3.40;;
49458;SDS011;35354;51.296;16.924;2023-08-01T12:15:50;6.03;;;3.20;;
49458;SDS011;35354;51.296;16.924;2023-08-01T12:18:20;3.65;;;2.88;;
49458;SDS011;35354;51.296;16.924;2023-08-01T12:20:47;2.92;;;2.67;;
49458;SDS011;35354;51.296;16.924;2023-08-01T12:23:12;2.65;;;2.45;;
49458;SDS011;35354;51.296;16.924;2023-08-01T12:25:37;3.13;;;2.83;;
49458;SDS011;35354;51.296;16.924;2023-08-01T12:28:03;5.35;;;2.88;;
49458;SDS011;35354;51.296;16.924;2023-08-01T12:30:28;3.33;;;2.83;;
49458;SDS011;35354;51.296;16.924;2023-08-01T12:32:53;3.45;;;3.15;;
49458;SDS011;35354;51.296;16.924;2023-08-01T12:35:19;2.72;;;2.50;;
49458;SDS011;35354;51.296;16.924;2023-08-01T12:37:44;4.43;;;2.85;;
49458;SDS011;35354;51.296;16.924;2023-08-01T12:40:09;3.90;;;2.33;;
49458;SDS011;35354;51.296;16.924;2023-08-01T12:42:35;2.50;;;2.30;;
49458;SDS011;35354;51.296;16.924;2023-08-01T12:45:00;2.83;;;2.40;;
49458;SDS011;35354;51.296;16.924;2023-08-01T12:47:28;2.47;;;2.28;;
49458;SDS011;35354;51.296;16.924;2023-08-01T12:49:53;2.70;;;2.20;;
49458;SDS011;35354;51.296;16.924;2023-08-01T12:52:23;2.72;;;2.42;;
49458;SDS011;35354;51.296;16.924;2023-08-01T12:54:52;2.17;;;1.80;;
49458;SDS011;35354;51.296;16.924;2023-08-01T12:57:18;3.20;;;2.20;;
49458;SDS011;35354;51.296;16.924;2023-08-01T12:59:43;4.07;;;2.50;;
49458;SDS011;35354;51.296;16.924;2023-08-01T13:02:09;1.90;;;1.80;;
49458;SDS011;35354;51.296;16.924;2023-08-01T13:04:35;2.45;;;2.25;;
49458;SDS011;35354;51.296;16.924;2023-08-01T13:07:00;2.35;;;2.15;;
49458;SDS011;35354;51.296;16.924;2023-08-01T13:09:25;3.17;;;2.45;;
49458;SDS011;35354;51.296;16.924;2023-08-01T13:11:51;2.72;;;2.45;;
49458;SDS011;35354;51.296;16.924;2023-08-01T13:14:16;2.28;;;2.08;;
49458;SDS011;35354;51.296;16.924;2023-08-01T13:16:41;2.92;;;2.33;;
49458;SDS011;35354;51.296;16.924;2023-08-01T13:19:07;3.03;;;2.22;;
49458;SDS011;35354;51.296;16.924;2023-08-01T13:21:32;2.47;;;2.20;;
49458;SDS011;35354;51.296;16.924;2023-08-01T13:24:01;3.20;;;2.08;;
49458;SDS011;35354;51.296;16.924;2023-08-01T13:26:30;2.72;;;2.30;;
49458;SDS011;35354;51.296;16.924;2023-08-01T13:28:56;2.38;;;2.17;;
49458;SDS011;35354;51.296;16.924;2023-08-01T13:31:22;3.35;;;2.67;;
49458;SDS011;35354;51.296;16.924;2023-08-01T13:33:47;2.25;;;2.05;;
49458;SDS011;35354;51.296;16.924;2023-08-01T13:36:12;2.60;;;2.40;;
49458;SDS011;35354;51.296;16.924;2023-08-01T13:38:38;2.20;;;2.10;;
49458;SDS011;35354;51.296;16.924;2023-08-01T13:41:03;3.17;;;2.28;;
49458;SDS011;35354;51.296;16.924;2023-08-01T13:43:29;4.35;;;2.63;;
49458;SDS011;35354;51.296;16.924;2023-08-01T13:45:54;2.50;;;2.30;;
49458;SDS011;35354;51.296;16.924;2023-08-01T13:48:20;2.92;;;2.13;;
49458;SDS011;35354;51.296;16.924;2023-08-01T13:50:45;3.08;;;2.10;;
49458;SDS011;35354;51.296;16.924;2023-08-01T13:53:10;2.88;;;2.28;;
49458;SDS011;35354;51.296;16.924;2023-08-01T13:55:38;2.60;;;2.40;;
49458;SDS011;35354;51.296;16.924;2023-08-01T13:58:04;3.25;;;2.30;;
49458;SDS011;35354;51.296;16.924;2023-08-01T14:00:29;4.65;;;2.30;;
49458;SDS011;35354;51.296;16.924;2023-08-01T14:02:55;2.78;;;2.58;;
49458;SDS011;35354;51.296;16.924;2023-08-01T14:05:24;4.85;;;2.90;;
49458;SDS011;35354;51.296;16.924;2023-08-01T14:07:49;3.42;;;2.67;;
49458;SDS011;35354;51.296;16.924;2023-08-01T14:10:15;2.88;;;2.58;;
49458;SDS011;35354;51.296;16.924;2023-08-01T14:12:41;5.03;;;2.38;;
49458;SDS011;35354;51.296;16.924;2023-08-01T14:15:06;3.35;;;2.10;;
49458;SDS011;35354;51.296;16.924;2023-08-01T14:17:32;2.83;;;2.53;;
49458;SDS011;35354;51.296;16.924;2023-08-01T14:19:57;4.60;;;2.50;;
49458;SDS011;35354;51.296;16.924;2023-08-01T14:22:23;2.90;;;2.28;;
49458;SDS011;35354;51.296;16.924;2023-08-01T14:24:49;2.05;;;1.85;;
49458;SDS011;35354;51.296;16.924;2023-08-01T14:27:14;2.35;;;2.15;;
49458;SDS011;35354;51.296;16.924;2023-08-01T14:29:39;2.53;;;1.92;;
49458;SDS011;35354;51.296;16.924;2023-08-01T14:32:05;1.92;;;1.73;;
49458;SDS011;35354;51.296;16.924;2023-08-01T14:34:31;2.47;;;1.85;;